sensor_id;sensor_type;location;lat;lon;timestamp;P1;durP1;ratioP1;P2;durP2;ratioP2
61009;SDS011;46897;55.340;86.082;2023-04-24T00:00:05;48.88;;;15.88;;
61009;SDS011;46897;55.340;86.082;2023-04-24T00:02:36;53.83;;;17.70;;
61009;SDS011;46897;55.340;86.082;2023-04-24T00:08:12;49.50;;;15.95;;
61009;SDS011;46897;55.340;86.082;2023-04-24T00:10:41;51.45;;;17.63;;
61009;SDS011;46897;55.340;86.082;2023-04-24T00:13:29;50.60;;;17.80;;
61009;SDS011;46897;55.340;86.082;2023-04-24T00:15:59;51.42;;;16.52;;
61009;SDS011;46897;55.340;86.082;2023-04-24T00:18:28;54.58;;;17.02;;
61009;SDS011;46897;55.340;86.082;2023-04-24T00:20:57;56.40;;;16.33;;
61009;SDS011;46897;55.340;86.082;2023-04-24T00:23:32;69.72;;;19.10;;
61009;SDS011;46897;55.340;86.082;2023-04-24T00:26:20;49.53;;;18.08;;
61009;SDS011;46897;55.340;86.082;2023-04-24T00:28:51;47.78;;;16.58;;
61009;SDS011;46897;55.340;86.082;2023-04-24T00:31:20;52.53;;;16.98;;
61009;SDS011;46897;55.340;86.082;2023-04-24T00:34:07;54.90;;;16.40;;
61009;SDS011;46897;55.340;86.082;2023-04-24T00:36:37;43.38;;;15.13;;
61009;SDS011;46897;55.340;86.082;2023-04-24T00:39:07;58.80;;;16.75;;
61009;SDS011;46897;55.340;86.082;2023-04-24T00:45:00;51.03;;;15.73;;
61009;SDS011;46897;55.340;86.082;2023-04-24T00:47:48;56.72;;;21.48;;
61009;SDS011;46897;55.340;86.082;2023-04-24T00:53:05;59.45;;;15.68;;
61009;SDS011;46897;55.340;86.082;2023-04-24T00:55:52;47.70;;;14.05;;
61009;SDS011;46897;55.340;86.082;2023-04-24T00:58:21;38.60;;;14.30;;
61009;SDS011;46897;55.340;86.082;2023-04-24T01:00:53;44.05;;;13.90;;
61009;SDS011;46897;55.340;86.082;2023-04-24T01:03:25;35.78;;;12.75;;
61009;SDS011;46897;55.340;86.082;2023-04-24T01:05:59;45.53;;;13.90;;
61009;SDS011;46897;55.340;86.082;2023-04-24T01:08:28;47.33;;;15.80;;
61009;SDS011;46897;55.340;86.082;2023-04-24T01:11:16;77.30;;;19.80;;
61009;SDS011;46897;55.340;86.082;2023-04-24T01:13:47;57.05;;;18.38;;
61009;SDS011;46897;55.340;86.082;2023-04-24T01:16:18;56.88;;;17.40;;
61009;SDS011;46897;55.340;86.082;2023-04-24T01:18:48;59.17;;;18.55;;
61009;SDS011;46897;55.340;86.082;2023-04-24T01:21:18;66.05;;;17.88;;
61009;SDS011;46897;55.340;86.082;2023-04-24T01:23:50;57.08;;;18.70;;
61009;SDS011;46897;55.340;86.082;2023-04-24T01:26:38;48.80;;;18.20;;
61009;SDS011;46897;55.340;86.082;2023-04-24T01:29:07;56.80;;;17.02;;
61009;SDS011;46897;55.340;86.082;2023-04-24T01:31:37;44.78;;;14.20;;
61009;SDS011;46897;55.340;86.082;2023-04-24T01:34:25;38.65;;;14.27;;
61009;SDS011;46897;55.340;86.082;2023-04-24T01:36:55;50.13;;;15.02;;
61009;SDS011;46897;55.340;86.082;2023-04-24T01:39:26;35.40;;;11.48;;
61009;SDS011;46897;55.340;86.082;2023-04-24T01:41:55;31.17;;;11.43;;
61009;SDS011;46897;55.340;86.082;2023-04-24T01:44:42;42.58;;;14.88;;
61009;SDS011;46897;55.340;86.082;2023-04-24T01:47:28;47.80;;;11.32;;
61009;SDS011;46897;55.340;86.082;2023-04-24T01:49:59;28.13;;;10.45;;
61009;SDS011;46897;55.340;86.082;2023-04-24T01:52:45;36.65;;;10.40;;
61009;SDS011;46897;55.340;86.082;2023-04-24T01:55:16;28.48;;;10.18;;
61009;SDS011;46897;55.340;86.082;2023-04-24T01:57:45;30.60;;;11.13;;
61009;SDS011;46897;55.340;86.082;2023-04-24T02:00:14;40.00;;;12.38;;
61009;SDS011;46897;55.340;86.082;2023-04-24T02:02:44;37.30;;;11.82;;
61009;SDS011;46897;55.340;86.082;2023-04-24T02:05:14;35.03;;;12.15;;
61009;SDS011;46897;55.340;86.082;2023-04-24T02:07:43;29.40;;;11.48;;
61009;SDS011;46897;55.340;86.082;2023-04-24T02:10:13;28.50;;;11.02;;
61009;SDS011;46897;55.340;86.082;2023-04-24T02:15:32;29.23;;;11.52;;
61009;SDS011;46897;55.340;86.082;2023-04-24T02:18:01;45.03;;;11.23;;
61009;SDS011;46897;55.340;86.082;2023-04-24T02:20:31;51.92;;;13.52;;
61009;SDS011;46897;55.340;86.082;2023-04-24T02:23:03;40.13;;;11.98;;
61009;SDS011;46897;55.340;86.082;2023-04-24T02:25:33;59.38;;;14.63;;
61009;SDS011;46897;55.340;86.082;2023-04-24T02:28:20;77.10;;;14.10;;
61009;SDS011;46897;55.340;86.082;2023-04-24T02:30:52;65.60;;;16.10;;
61009;SDS011;46897;55.340;86.082;2023-04-24T02:33:22;41.65;;;14.07;;
61009;SDS011;46897;55.340;86.082;2023-04-24T02:38:41;40.60;;;14.65;;
61009;SDS011;46897;55.340;86.082;2023-04-24T02:41:10;45.80;;;14.80;;
61009;SDS011;46897;55.340;86.082;2023-04-24T02:46:54;45.17;;;14.93;;
61009;SDS011;46897;55.340;86.082;2023-04-24T02:49:32;43.60;;;13.00;;
61009;SDS011;46897;55.340;86.082;2023-04-24T02:52:01;48.10;;;11.95;;
61009;SDS011;46897;55.340;86.082;2023-04-24T02:54:30;44.55;;;12.10;;
61009;SDS011;46897;55.340;86.082;2023-04-24T02:57:16;54.53;;;13.48;;
61009;SDS011;46897;55.340;86.082;2023-04-24T02:59:45;41.15;;;11.93;;
61009;SDS011;46897;55.340;86.082;2023-04-24T03:02:16;44.83;;;12.18;;
61009;SDS011;46897;55.340;86.082;2023-04-24T03:05:21;43.15;;;10.98;;
61009;SDS011;46897;55.340;86.082;2023-04-24T03:07:50;36.05;;;12.40;;
61009;SDS011;46897;55.340;86.082;2023-04-24T03:10:20;38.28;;;12.27;;
61009;SDS011;46897;55.340;86.082;2023-04-24T03:12:52;35.50;;;12.23;;
61009;SDS011;46897;55.340;86.082;2023-04-24T03:15:39;36.47;;;12.93;;
61009;SDS011;46897;55.340;86.082;2023-04-24T03:18:11;38.08;;;11.77;;
61009;SDS011;46897;55.340;86.082;2023-04-24T03:20:41;34.92;;;11.35;;
61009;SDS011;46897;55.340;86.082;2023-04-24T03:23:11;34.13;;;11.82;;
61009;SDS011;46897;55.340;86.082;2023-04-24T03:25:40;36.15;;;11.15;;
61009;SDS011;46897;55.340;86.082;2023-04-24T03:28:11;37.60;;;13.43;;
61009;SDS011;46897;55.340;86.082;2023-04-24T03:30:40;26.58;;;11.43;;
61009;SDS011;46897;55.340;86.082;2023-04-24T03:33:09;37.78;;;9.77;;
61009;SDS011;46897;55.340;86.082;2023-04-24T03:35:40;65.68;;;14.43;;
61009;SDS011;46897;55.340;86.082;2023-04-24T03:38:09;34.33;;;10.40;;
61009;SDS011;46897;55.340;86.082;2023-04-24T03:40:38;33.85;;;10.52;;
61009;SDS011;46897;55.340;86.082;2023-04-24T03:43:07;47.92;;;11.23;;
61009;SDS011;46897;55.340;86.082;2023-04-24T03:45:55;59.33;;;13.80;;
61009;SDS011;46897;55.340;86.082;2023-04-24T03:48:24;43.97;;;13.20;;
61009;SDS011;46897;55.340;86.082;2023-04-24T03:50:55;44.20;;;15.98;;
61009;SDS011;46897;55.340;86.082;2023-04-24T03:53:24;44.92;;;16.73;;
61009;SDS011;46897;55.340;86.082;2023-04-24T03:55:53;41.08;;;13.95;;
61009;SDS011;46897;55.340;86.082;2023-04-24T04:01:30;40.97;;;13.90;;
61009;SDS011;46897;55.340;86.082;2023-04-24T04:03:59;55.80;;;14.80;;
61009;SDS011;46897;55.340;86.082;2023-04-24T04:06:30;41.38;;;11.88;;
61009;SDS011;46897;55.340;86.082;2023-04-24T04:08:59;35.80;;;9.07;;
61009;SDS011;46897;55.340;86.082;2023-04-24T04:11:29;28.85;;;9.40;;
61009;SDS011;46897;55.340;86.082;2023-04-24T04:13:58;31.15;;;9.30;;
61009;SDS011;46897;55.340;86.082;2023-04-24T04:16:27;52.33;;;10.18;;
61009;SDS011;46897;55.340;86.082;2023-04-24T04:18:56;61.63;;;9.15;;
61009;SDS011;46897;55.340;86.082;2023-04-24T04:21:26;32.65;;;9.30;;
61009;SDS011;46897;55.340;86.082;2023-04-24T04:24:19;35.95;;;9.27;;
61009;SDS011;46897;55.340;86.082;2023-04-24T04:29:37;36.00;;;7.85;;
61009;SDS011;46897;55.340;86.082;2023-04-24T04:35:30;33.33;;;8.15;;
61009;SDS011;46897;55.340;86.082;2023-04-24T04:40:49;51.58;;;9.30;;
61009;SDS011;46897;55.340;86.082;2023-04-24T04:43:18;29.23;;;6.90;;
61009;SDS011;46897;55.340;86.082;2023-04-24T04:45:47;29.67;;;6.75;;
61009;SDS011;46897;55.340;86.082;2023-04-24T04:48:16;29.40;;;10.70;;
61009;SDS011;46897;55.340;86.082;2023-04-24T04:50:46;48.75;;;9.20;;
61009;SDS011;46897;55.340;86.082;2023-04-24T04:56:04;30.77;;;7.78;;
61009;SDS011;46897;55.340;86.082;2023-04-24T04:58:33;33.67;;;8.13;;
61009;SDS011;46897;55.340;86.082;2023-04-24T05:01:02;25.38;;;7.03;;
61009;SDS011;46897;55.340;86.082;2023-04-24T05:03:32;30.17;;;7.43;;
61009;SDS011;46897;55.340;86.082;2023-04-24T05:06:01;53.63;;;8.13;;
61009;SDS011;46897;55.340;86.082;2023-04-24T05:08:31;30.30;;;7.95;;
61009;SDS011;46897;55.340;86.082;2023-04-24T05:13:49;29.95;;;6.80;;
61009;SDS011;46897;55.340;86.082;2023-04-24T05:19:08;26.70;;;7.03;;
61009;SDS011;46897;55.340;86.082;2023-04-24T05:21:38;48.65;;;8.50;;
61009;SDS011;46897;55.340;86.082;2023-04-24T05:24:07;37.05;;;9.60;;
61009;SDS011;46897;55.340;86.082;2023-04-24T05:26:38;42.05;;;7.95;;
61009;SDS011;46897;55.340;86.082;2023-04-24T05:29:25;35.85;;;7.20;;
61009;SDS011;46897;55.340;86.082;2023-04-24T05:31:55;26.58;;;6.35;;
61009;SDS011;46897;55.340;86.082;2023-04-24T05:34:24;88.07;;;11.75;;
61009;SDS011;46897;55.340;86.082;2023-04-24T05:36:53;50.08;;;7.82;;
61009;SDS011;46897;55.340;86.082;2023-04-24T05:39:40;55.88;;;8.15;;
61009;SDS011;46897;55.340;86.082;2023-04-24T05:42:11;27.60;;;6.85;;
61009;SDS011;46897;55.340;86.082;2023-04-24T05:44:40;29.80;;;6.75;;
61009;SDS011;46897;55.340;86.082;2023-04-24T05:47:09;21.70;;;6.68;;
61009;SDS011;46897;55.340;86.082;2023-04-24T05:49:39;27.25;;;6.22;;
61009;SDS011;46897;55.340;86.082;2023-04-24T05:52:28;18.80;;;6.57;;
61009;SDS011;46897;55.340;86.082;2023-04-24T05:55:14;21.77;;;8.00;;
61009;SDS011;46897;55.340;86.082;2023-04-24T05:58:02;25.73;;;6.78;;
61009;SDS011;46897;55.340;86.082;2023-04-24T06:00:32;35.65;;;6.63;;
61009;SDS011;46897;55.340;86.082;2023-04-24T06:03:22;28.48;;;7.30;;
61009;SDS011;46897;55.340;86.082;2023-04-24T06:05:51;31.67;;;6.75;;
61009;SDS011;46897;55.340;86.082;2023-04-24T06:08:20;26.25;;;5.93;;
61009;SDS011;46897;55.340;86.082;2023-04-24T06:11:12;52.78;;;8.02;;
61009;SDS011;46897;55.340;86.082;2023-04-24T06:13:42;29.77;;;6.68;;
61009;SDS011;46897;55.340;86.082;2023-04-24T06:16:11;47.13;;;8.18;;
61009;SDS011;46897;55.340;86.082;2023-04-24T06:18:43;29.67;;;7.00;;
61009;SDS011;46897;55.340;86.082;2023-04-24T06:21:14;52.63;;;7.85;;
61009;SDS011;46897;55.340;86.082;2023-04-24T06:26:32;19.90;;;5.72;;
61009;SDS011;46897;55.340;86.082;2023-04-24T06:29:24;31.88;;;6.57;;
61009;SDS011;46897;55.340;86.082;2023-04-24T06:31:56;31.48;;;7.25;;
61009;SDS011;46897;55.340;86.082;2023-04-24T06:34:44;39.25;;;8.02;;
61009;SDS011;46897;55.340;86.082;2023-04-24T06:37:13;131.15;;;11.90;;
61009;SDS011;46897;55.340;86.082;2023-04-24T06:39:43;104.07;;;11.95;;
61009;SDS011;46897;55.340;86.082;2023-04-24T06:42:33;72.47;;;8.48;;
61009;SDS011;46897;55.340;86.082;2023-04-24T06:45:21;31.52;;;6.95;;
61009;SDS011;46897;55.340;86.082;2023-04-24T06:47:51;38.33;;;6.88;;
61009;SDS011;46897;55.340;86.082;2023-04-24T06:50:20;62.83;;;8.82;;
61009;SDS011;46897;55.340;86.082;2023-04-24T06:55:39;32.78;;;6.60;;
61009;SDS011;46897;55.340;86.082;2023-04-24T06:58:08;51.85;;;8.23;;
61009;SDS011;46897;55.340;86.082;2023-04-24T07:00:57;78.82;;;9.52;;
61009;SDS011;46897;55.340;86.082;2023-04-24T07:03:26;27.63;;;6.25;;
61009;SDS011;46897;55.340;86.082;2023-04-24T07:05:57;39.90;;;7.25;;
61009;SDS011;46897;55.340;86.082;2023-04-24T07:08:26;29.30;;;6.97;;
61009;SDS011;46897;55.340;86.082;2023-04-24T07:10:57;30.05;;;6.03;;
61009;SDS011;46897;55.340;86.082;2023-04-24T07:13:26;38.60;;;7.43;;
61009;SDS011;46897;55.340;86.082;2023-04-24T07:16:15;28.20;;;7.10;;
61009;SDS011;46897;55.340;86.082;2023-04-24T07:18:44;28.13;;;7.57;;
61009;SDS011;46897;55.340;86.082;2023-04-24T07:21:13;64.57;;;8.73;;
61009;SDS011;46897;55.340;86.082;2023-04-24T07:23:43;30.20;;;6.38;;
61009;SDS011;46897;55.340;86.082;2023-04-24T07:26:29;34.70;;;11.35;;
61009;SDS011;46897;55.340;86.082;2023-04-24T07:28:59;19.58;;;6.25;;
61009;SDS011;46897;55.340;86.082;2023-04-24T07:31:29;27.23;;;6.45;;
61009;SDS011;46897;55.340;86.082;2023-04-24T07:33:59;26.35;;;6.50;;
61009;SDS011;46897;55.340;86.082;2023-04-24T07:36:29;32.35;;;7.93;;
61009;SDS011;46897;55.340;86.082;2023-04-24T07:38:59;45.75;;;7.78;;
61009;SDS011;46897;55.340;86.082;2023-04-24T07:41:45;26.05;;;7.45;;
61009;SDS011;46897;55.340;86.082;2023-04-24T07:44:14;40.28;;;7.70;;
61009;SDS011;46897;55.340;86.082;2023-04-24T07:46:45;93.20;;;10.80;;
61009;SDS011;46897;55.340;86.082;2023-04-24T07:49:15;32.63;;;7.63;;
61009;SDS011;46897;55.340;86.082;2023-04-24T07:57:25;41.13;;;6.80;;
61009;SDS011;46897;55.340;86.082;2023-04-24T07:59:54;26.05;;;7.28;;
61009;SDS011;46897;55.340;86.082;2023-04-24T08:05:12;28.60;;;6.68;;
61009;SDS011;46897;55.340;86.082;2023-04-24T08:10:29;24.10;;;5.13;;
61009;SDS011;46897;55.340;86.082;2023-04-24T08:12:58;25.52;;;5.78;;
61009;SDS011;46897;55.340;86.082;2023-04-24T08:15:28;32.22;;;6.35;;
61009;SDS011;46897;55.340;86.082;2023-04-24T08:20:47;26.48;;;5.13;;
61009;SDS011;46897;55.340;86.082;2023-04-24T08:26:03;22.48;;;5.03;;
61009;SDS011;46897;55.340;86.082;2023-04-24T08:28:34;87.45;;;7.57;;
61009;SDS011;46897;55.340;86.082;2023-04-24T08:31:20;12.43;;;3.78;;
61009;SDS011;46897;55.340;86.082;2023-04-24T08:33:51;16.52;;;4.55;;
61009;SDS011;46897;55.340;86.082;2023-04-24T08:36:20;35.65;;;4.70;;
61009;SDS011;46897;55.340;86.082;2023-04-24T08:39:01;17.35;;;2.97;;
61009;SDS011;46897;55.340;86.082;2023-04-24T08:41:48;15.68;;;3.42;;
61009;SDS011;46897;55.340;86.082;2023-04-24T08:44:35;20.90;;;3.70;;
61009;SDS011;46897;55.340;86.082;2023-04-24T08:47:05;36.70;;;5.45;;
61009;SDS011;46897;55.340;86.082;2023-04-24T08:49:54;22.98;;;3.30;;
61009;SDS011;46897;55.340;86.082;2023-04-24T08:55:13;12.20;;;3.10;;
61009;SDS011;46897;55.340;86.082;2023-04-24T08:57:44;29.55;;;4.05;;
61009;SDS011;46897;55.340;86.082;2023-04-24T09:00:19;14.98;;;3.05;;
61009;SDS011;46897;55.340;86.082;2023-04-24T09:05:38;20.50;;;3.88;;
61009;SDS011;46897;55.340;86.082;2023-04-24T09:08:25;25.75;;;3.55;;
61009;SDS011;46897;55.340;86.082;2023-04-24T09:10:56;26.35;;;4.10;;
61009;SDS011;46897;55.340;86.082;2023-04-24T09:13:28;19.05;;;4.00;;
61009;SDS011;46897;55.340;86.082;2023-04-24T09:15:59;16.45;;;3.00;;
61009;SDS011;46897;55.340;86.082;2023-04-24T09:18:28;16.35;;;3.50;;
61009;SDS011;46897;55.340;86.082;2023-04-24T09:20:59;13.60;;;4.20;;
61009;SDS011;46897;55.340;86.082;2023-04-24T09:23:30;16.00;;;3.92;;
61009;SDS011;46897;55.340;86.082;2023-04-24T09:26:00;16.45;;;3.92;;
61009;SDS011;46897;55.340;86.082;2023-04-24T09:28:32;16.58;;;4.38;;
61009;SDS011;46897;55.340;86.082;2023-04-24T09:31:07;9.07;;;3.78;;
61009;SDS011;46897;55.340;86.082;2023-04-24T09:33:55;14.40;;;3.92;;
61009;SDS011;46897;55.340;86.082;2023-04-24T09:39:35;11.35;;;4.20;;
61009;SDS011;46897;55.340;86.082;2023-04-24T09:42:04;16.23;;;4.40;;
61009;SDS011;46897;55.340;86.082;2023-04-24T09:44:35;15.38;;;4.60;;
61009;SDS011;46897;55.340;86.082;2023-04-24T09:47:37;14.20;;;4.40;;
61009;SDS011;46897;55.340;86.082;2023-04-24T09:50:15;18.73;;;4.38;;
61009;SDS011;46897;55.340;86.082;2023-04-24T09:52:55;10.27;;;4.30;;
61009;SDS011;46897;55.340;86.082;2023-04-24T09:55:30;14.35;;;4.00;;
61009;SDS011;46897;55.340;86.082;2023-04-24T09:58:03;30.15;;;5.22;;
61009;SDS011;46897;55.340;86.082;2023-04-24T10:00:50;19.60;;;4.43;;
61009;SDS011;46897;55.340;86.082;2023-04-24T10:03:42;26.83;;;4.28;;
61009;SDS011;46897;55.340;86.082;2023-04-24T10:09:38;13.93;;;3.72;;
61009;SDS011;46897;55.340;86.082;2023-04-24T10:12:10;14.18;;;3.28;;
61009;SDS011;46897;55.340;86.082;2023-04-24T10:14:40;12.23;;;3.00;;
61009;SDS011;46897;55.340;86.082;2023-04-24T10:17:12;13.77;;;3.30;;
61009;SDS011;46897;55.340;86.082;2023-04-24T10:23:06;14.80;;;5.37;;
61009;SDS011;46897;55.340;86.082;2023-04-24T10:25:36;10.93;;;4.75;;
61009;SDS011;46897;55.340;86.082;2023-04-24T10:28:10;15.05;;;4.60;;
61009;SDS011;46897;55.340;86.082;2023-04-24T10:33:28;17.17;;;6.95;;
61009;SDS011;46897;55.340;86.082;2023-04-24T10:35:59;22.13;;;9.27;;
61009;SDS011;46897;55.340;86.082;2023-04-24T10:38:30;17.00;;;7.25;;
61009;SDS011;46897;55.340;86.082;2023-04-24T10:41:07;16.20;;;5.68;;
61009;SDS011;46897;55.340;86.082;2023-04-24T10:43:44;22.55;;;6.78;;
61009;SDS011;46897;55.340;86.082;2023-04-24T10:46:29;34.15;;;7.90;;
61009;SDS011;46897;55.340;86.082;2023-04-24T10:48:59;20.25;;;5.88;;
61009;SDS011;46897;55.340;86.082;2023-04-24T10:51:52;15.73;;;4.72;;
61009;SDS011;46897;55.340;86.082;2023-04-24T10:54:23;13.38;;;3.30;;
61009;SDS011;46897;55.340;86.082;2023-04-24T10:57:25;19.38;;;4.32;;
61009;SDS011;46897;55.340;86.082;2023-04-24T11:00:18;13.27;;;4.72;;
61009;SDS011;46897;55.340;86.082;2023-04-24T11:02:49;12.60;;;5.00;;
61009;SDS011;46897;55.340;86.082;2023-04-24T11:08:29;19.80;;;6.05;;
61009;SDS011;46897;55.340;86.082;2023-04-24T11:11:01;26.17;;;8.07;;
61009;SDS011;46897;55.340;86.082;2023-04-24T11:16:32;17.10;;;5.30;;
61009;SDS011;46897;55.340;86.082;2023-04-24T11:19:08;11.60;;;4.80;;
61009;SDS011;46897;55.340;86.082;2023-04-24T11:21:49;17.95;;;5.10;;
61009;SDS011;46897;55.340;86.082;2023-04-24T11:24:31;14.93;;;4.43;;
61009;SDS011;46897;55.340;86.082;2023-04-24T11:30:17;15.13;;;4.82;;
61009;SDS011;46897;55.340;86.082;2023-04-24T11:32:50;11.63;;;4.60;;
61009;SDS011;46897;55.340;86.082;2023-04-24T11:35:20;13.27;;;4.68;;
61009;SDS011;46897;55.340;86.082;2023-04-24T11:37:52;16.25;;;5.57;;
61009;SDS011;46897;55.340;86.082;2023-04-24T11:40:25;19.75;;;6.43;;
61009;SDS011;46897;55.340;86.082;2023-04-24T11:43:25;18.08;;;7.72;;
61009;SDS011;46897;55.340;86.082;2023-04-24T11:45:59;15.45;;;5.22;;
61009;SDS011;46897;55.340;86.082;2023-04-24T11:48:35;13.45;;;4.05;;
61009;SDS011;46897;55.340;86.082;2023-04-24T11:51:40;20.02;;;6.38;;
61009;SDS011;46897;55.340;86.082;2023-04-24T11:54:19;18.02;;;6.50;;
61009;SDS011;46897;55.340;86.082;2023-04-24T11:56:49;27.02;;;6.20;;
61009;SDS011;46897;55.340;86.082;2023-04-24T11:59:18;27.80;;;7.28;;
61009;SDS011;46897;55.340;86.082;2023-04-24T12:01:47;19.23;;;7.18;;
61009;SDS011;46897;55.340;86.082;2023-04-24T12:04:40;25.35;;;8.38;;
61009;SDS011;46897;55.340;86.082;2023-04-24T12:07:10;18.95;;;6.45;;
61009;SDS011;46897;55.340;86.082;2023-04-24T12:09:58;27.02;;;7.72;;
61009;SDS011;46897;55.340;86.082;2023-04-24T12:12:28;27.35;;;9.93;;
61009;SDS011;46897;55.340;86.082;2023-04-24T12:14:58;30.70;;;12.27;;
61009;SDS011;46897;55.340;86.082;2023-04-24T12:17:28;22.13;;;8.32;;
61009;SDS011;46897;55.340;86.082;2023-04-24T12:20:00;27.90;;;10.50;;
61009;SDS011;46897;55.340;86.082;2023-04-24T12:25:38;25.83;;;11.35;;
61009;SDS011;46897;55.340;86.082;2023-04-24T12:28:11;23.20;;;7.30;;
61009;SDS011;46897;55.340;86.082;2023-04-24T12:30:41;19.88;;;7.50;;
61009;SDS011;46897;55.340;86.082;2023-04-24T12:33:12;24.25;;;6.68;;
61009;SDS011;46897;55.340;86.082;2023-04-24T12:35:44;24.80;;;5.15;;
61009;SDS011;46897;55.340;86.082;2023-04-24T12:38:56;17.80;;;3.70;;
61009;SDS011;46897;55.340;86.082;2023-04-24T12:41:25;10.98;;;5.15;;
61009;SDS011;46897;55.340;86.082;2023-04-24T12:43:54;18.33;;;4.80;;
61009;SDS011;46897;55.340;86.082;2023-04-24T12:46:24;11.35;;;5.05;;
61009;SDS011;46897;55.340;86.082;2023-04-24T12:48:53;9.40;;;3.25;;
61009;SDS011;46897;55.340;86.082;2023-04-24T12:57:35;26.88;;;10.77;;
61009;SDS011;46897;55.340;86.082;2023-04-24T13:00:10;44.35;;;18.70;;
61009;SDS011;46897;55.340;86.082;2023-04-24T13:05:47;14.57;;;6.38;;
61009;SDS011;46897;55.340;86.082;2023-04-24T13:08:17;18.80;;;6.43;;
61009;SDS011;46897;55.340;86.082;2023-04-24T13:10:50;14.50;;;4.57;;
61009;SDS011;46897;55.340;86.082;2023-04-24T13:13:20;12.02;;;4.07;;
61009;SDS011;46897;55.340;86.082;2023-04-24T13:16:21;17.42;;;5.53;;
61009;SDS011;46897;55.340;86.082;2023-04-24T13:18:50;29.90;;;12.73;;
61009;SDS011;46897;55.340;86.082;2023-04-24T13:21:19;36.42;;;10.50;;
61009;SDS011;46897;55.340;86.082;2023-04-24T13:23:50;39.65;;;14.30;;
61009;SDS011;46897;55.340;86.082;2023-04-24T13:26:20;45.63;;;17.52;;
61009;SDS011;46897;55.340;86.082;2023-04-24T13:28:49;45.67;;;16.65;;
61009;SDS011;46897;55.340;86.082;2023-04-24T13:31:18;103.30;;;43.75;;
61009;SDS011;46897;55.340;86.082;2023-04-24T13:33:48;121.53;;;50.65;;
61009;SDS011;46897;55.340;86.082;2023-04-24T13:36:17;211.50;;;79.63;;
61009;SDS011;46897;55.340;86.082;2023-04-24T13:39:10;185.98;;;64.10;;
61009;SDS011;46897;55.340;86.082;2023-04-24T13:41:44;179.90;;;67.05;;
61009;SDS011;46897;55.340;86.082;2023-04-24T13:44:16;200.70;;;79.43;;
61009;SDS011;46897;55.340;86.082;2023-04-24T13:46:46;212.50;;;83.63;;
61009;SDS011;46897;55.340;86.082;2023-04-24T13:49:18;219.60;;;90.90;;
61009;SDS011;46897;55.340;86.082;2023-04-24T13:52:06;201.75;;;79.32;;
61009;SDS011;46897;55.340;86.082;2023-04-24T13:54:38;144.75;;;57.20;;
61009;SDS011;46897;55.340;86.082;2023-04-24T13:57:07;151.10;;;55.30;;
61009;SDS011;46897;55.340;86.082;2023-04-24T13:59:37;134.10;;;49.63;;
61009;SDS011;46897;55.340;86.082;2023-04-24T14:02:07;121.20;;;49.25;;
61009;SDS011;46897;55.340;86.082;2023-04-24T14:04:50;101.68;;;43.00;;
61009;SDS011;46897;55.340;86.082;2023-04-24T14:07:36;100.15;;;38.15;;
61009;SDS011;46897;55.340;86.082;2023-04-24T14:10:07;72.10;;;29.88;;
61009;SDS011;46897;55.340;86.082;2023-04-24T14:12:56;86.03;;;36.90;;
61009;SDS011;46897;55.340;86.082;2023-04-24T14:15:48;86.43;;;27.20;;
61009;SDS011;46897;55.340;86.082;2023-04-24T14:18:21;44.88;;;16.25;;
61009;SDS011;46897;55.340;86.082;2023-04-24T14:20:50;79.65;;;28.73;;
61009;SDS011;46897;55.340;86.082;2023-04-24T14:23:20;94.75;;;36.75;;
61009;SDS011;46897;55.340;86.082;2023-04-24T14:28:45;72.32;;;24.80;;
61009;SDS011;46897;55.340;86.082;2023-04-24T14:31:19;59.35;;;25.73;;
61009;SDS011;46897;55.340;86.082;2023-04-24T14:33:49;47.72;;;17.52;;
61009;SDS011;46897;55.340;86.082;2023-04-24T14:36:35;86.95;;;31.35;;
61009;SDS011;46897;55.340;86.082;2023-04-24T14:41:54;75.28;;;25.75;;
61009;SDS011;46897;55.340;86.082;2023-04-24T14:44:40;76.32;;;23.92;;
61009;SDS011;46897;55.340;86.082;2023-04-24T14:47:10;114.93;;;31.85;;
61009;SDS011;46897;55.340;86.082;2023-04-24T14:49:39;98.78;;;36.80;;
61009;SDS011;46897;55.340;86.082;2023-04-24T14:52:13;231.52;;;84.88;;
61009;SDS011;46897;55.340;86.082;2023-04-24T14:57:32;321.58;;;127.70;;
61009;SDS011;46897;55.340;86.082;2023-04-24T15:00:02;295.77;;;112.70;;
61009;SDS011;46897;55.340;86.082;2023-04-24T15:02:33;249.30;;;90.05;;
61009;SDS011;46897;55.340;86.082;2023-04-24T15:08:15;202.50;;;67.25;;
61009;SDS011;46897;55.340;86.082;2023-04-24T15:10:44;149.23;;;49.58;;
61009;SDS011;46897;55.340;86.082;2023-04-24T15:13:15;145.65;;;52.75;;
61009;SDS011;46897;55.340;86.082;2023-04-24T15:15:46;145.23;;;51.35;;
61009;SDS011;46897;55.340;86.082;2023-04-24T15:18:18;256.95;;;95.93;;
61009;SDS011;46897;55.340;86.082;2023-04-24T15:21:06;153.40;;;57.60;;
61009;SDS011;46897;55.340;86.082;2023-04-24T15:23:53;156.52;;;56.80;;
61009;SDS011;46897;55.340;86.082;2023-04-24T15:26:23;155.35;;;55.10;;
61009;SDS011;46897;55.340;86.082;2023-04-24T15:28:55;165.90;;;58.65;;
61009;SDS011;46897;55.340;86.082;2023-04-24T15:31:45;171.75;;;64.47;;
61009;SDS011;46897;55.340;86.082;2023-04-24T15:34:17;156.10;;;57.50;;
61009;SDS011;46897;55.340;86.082;2023-04-24T15:39:34;113.93;;;41.97;;
61009;SDS011;46897;55.340;86.082;2023-04-24T15:42:22;84.85;;;32.67;;
61009;SDS011;46897;55.340;86.082;2023-04-24T15:47:57;53.35;;;21.17;;
61009;SDS011;46897;55.340;86.082;2023-04-24T15:50:34;39.83;;;17.00;;
61009;SDS011;46897;55.340;86.082;2023-04-24T15:53:05;36.30;;;16.08;;
61009;SDS011;46897;55.340;86.082;2023-04-24T15:55:34;40.17;;;16.17;;
61009;SDS011;46897;55.340;86.082;2023-04-24T15:58:20;38.85;;;16.42;;
61009;SDS011;46897;55.340;86.082;2023-04-24T16:00:51;41.90;;;17.83;;
61009;SDS011;46897;55.340;86.082;2023-04-24T16:03:21;38.40;;;16.15;;
61009;SDS011;46897;55.340;86.082;2023-04-24T16:06:09;37.70;;;15.70;;
61009;SDS011;46897;55.340;86.082;2023-04-24T16:08:38;35.92;;;13.73;;
61009;SDS011;46897;55.340;86.082;2023-04-24T16:11:26;37.80;;;13.30;;
61009;SDS011;46897;55.340;86.082;2023-04-24T16:13:59;26.58;;;12.35;;
61009;SDS011;46897;55.340;86.082;2023-04-24T16:16:30;26.27;;;11.57;;
61009;SDS011;46897;55.340;86.082;2023-04-24T16:19:17;30.40;;;13.57;;
61009;SDS011;46897;55.340;86.082;2023-04-24T16:21:47;25.00;;;10.65;;
61009;SDS011;46897;55.340;86.082;2023-04-24T16:24:18;32.58;;;13.02;;
61009;SDS011;46897;55.340;86.082;2023-04-24T16:27:08;27.30;;;12.02;;
61009;SDS011;46897;55.340;86.082;2023-04-24T16:29:37;25.83;;;11.02;;
61009;SDS011;46897;55.340;86.082;2023-04-24T16:32:08;26.00;;;11.45;;
61009;SDS011;46897;55.340;86.082;2023-04-24T16:34:37;26.60;;;11.82;;
61009;SDS011;46897;55.340;86.082;2023-04-24T16:37:06;25.48;;;12.02;;
61009;SDS011;46897;55.340;86.082;2023-04-24T16:39:53;30.38;;;12.60;;
61009;SDS011;46897;55.340;86.082;2023-04-24T16:42:24;31.23;;;14.70;;
61009;SDS011;46897;55.340;86.082;2023-04-24T16:44:53;35.05;;;13.38;;
61009;SDS011;46897;55.340;86.082;2023-04-24T16:47:23;38.22;;;15.30;;
61009;SDS011;46897;55.340;86.082;2023-04-24T16:50:11;39.85;;;16.05;;
61009;SDS011;46897;55.340;86.082;2023-04-24T16:52:41;36.78;;;13.90;;